sensor_id;sensor_type;location;lat;lon;timestamp;pressure;altitude;pressure_sealevel;temperature;humidity
25944;BME280;13742;49.306;8.636;2023-08-06T00:00:46;99636.70;;;18.22;82.30
25944;BME280;13742;49.306;8.636;2023-08-06T00:01:46;99638.30;;;18.21;82.04
25944;BME280;13742;49.306;8.636;2023-08-06T00:02:46;99636.99;;;18.19;81.84
25944;BME280;13742;49.306;8.636;2023-08-06T00:03:46;99637.79;;;18.18;81.79
25944;BME280;13742;49.306;8.636;2023-08-06T00:04:46;99642.53;;;18.17;81.64
25944;BME280;13742;49.306;8.636;2023-08-06T00:05:46;99641.23;;;18.16;81.72
25944;BME280;13742;49.306;8.636;2023-08-06T00:06:46;99642.90;;;18.16;82.00
25944;BME280;13742;49.306;8.636;2023-08-06T00:07:46;99643.06;;;18.16;82.03
25944;BME280;13742;49.306;8.636;2023-08-06T00:08:46;99642.03;;;18.15;81.85
25944;BME280;13742;49.306;8.636;2023-08-06T00:09:46;99644.97;;;18.15;81.83
25944;BME280;13742;49.306;8.636;2023-08-06T00:10:47;99641.22;;;18.13;81.93
25944;BME280;13742;49.306;8.636;2023-08-06T00:11:46;99639.17;;;18.12;81.71
25944;BME280;13742;49.306;8.636;2023-08-06T00:12:46;99634.94;;;18.13;81.88
25944;BME280;13742;49.306;8.636;2023-08-06T00:13:46;99637.70;;;18.13;81.81
25944;BME280;13742;49.306;8.636;2023-08-06T00:14:49;99633.86;;;18.11;81.57
25944;BME280;13742;49.306;8.636;2023-08-06T00:15:46;99631.81;;;18.10;81.50
25944;BME280;13742;49.306;8.636;2023-08-06T00:16:46;99631.28;;;18.09;81.38
25944;BME280;13742;49.306;8.636;2023-08-06T00:17:46;99630.28;;;18.09;81.48
25944;BME280;13742;49.306;8.636;2023-08-06T00:18:46;99630.01;;;18.08;81.85
25944;BME280;13742;49.306;8.636;2023-08-06T00:19:46;99626.73;;;18.07;81.88
25944;BME280;13742;49.306;8.636;2023-08-06T00:20:46;99628.09;;;18.06;82.17
25944;BME280;13742;49.306;8.636;2023-08-06T00:21:46;99625.36;;;18.06;81.75
25944;BME280;13742;49.306;8.636;2023-08-06T00:22:46;99624.81;;;18.06;81.54
25944;BME280;13742;49.306;8.636;2023-08-06T00:23:46;99623.31;;;18.05;82.16
25944;BME280;13742;49.306;8.636;2023-08-06T00:24:46;99621.50;;;18.04;81.75
25944;BME280;13742;49.306;8.636;2023-08-06T00:25:46;99619.84;;;18.04;81.90
25944;BME280;13742;49.306;8.636;2023-08-06T00:26:46;99616.59;;;18.02;81.82
25944;BME280;13742;49.306;8.636;2023-08-06T00:27:46;99617.32;;;18.02;81.76
25944;BME280;13742;49.306;8.636;2023-08-06T00:28:46;99613.77;;;18.00;81.44
25944;BME280;13742;49.306;8.636;2023-08-06T00:29:46;99616.55;;;18.01;81.73
25944;BME280;13742;49.306;8.636;2023-08-06T00:30:46;99616.88;;;18.01;81.87
25944;BME280;13742;49.306;8.636;2023-08-06T00:31:46;99618.83;;;18.01;81.77
25944;BME280;13742;49.306;8.636;2023-08-06T00:32:46;99617.69;;;18.00;81.90
25944;BME280;13742;49.306;8.636;2023-08-06T00:33:46;99614.67;;;18.00;81.82
25944;BME280;13742;49.306;8.636;2023-08-06T00:34:46;99614.55;;;18.01;82.02
25944;BME280;13742;49.306;8.636;2023-08-06T00:35:46;99612.94;;;18.01;82.08
25944;BME280;13742;49.306;8.636;2023-08-06T00:36:46;99611.94;;;18.00;81.71
25944;BME280;13742;49.306;8.636;2023-08-06T00:37:47;99607.33;;;18.00;82.83
25944;BME280;13742;49.306;8.636;2023-08-06T00:38:46;99604.92;;;18.01;82.99
25944;BME280;13742;49.306;8.636;2023-08-06T00:39:46;99603.52;;;18.01;83.05
25944;BME280;13742;49.306;8.636;2023-08-06T00:40:46;99601.08;;;18.01;82.54
25944;BME280;13742;49.306;8.636;2023-08-06T00:41:46;99599.58;;;18.00;82.24
25944;BME280;13742;49.306;8.636;2023-08-06T00:42:46;99595.73;;;18.00;83.46
25944;BME280;13742;49.306;8.636;2023-08-06T00:43:46;99595.47;;;18.00;82.55
25944;BME280;13742;49.306;8.636;2023-08-06T00:44:46;99593.36;;;17.99;82.47
25944;BME280;13742;49.306;8.636;2023-08-06T00:45:46;99590.58;;;17.99;82.29
25944;BME280;13742;49.306;8.636;2023-08-06T00:46:46;99592.08;;;17.99;82.03
25944;BME280;13742;49.306;8.636;2023-08-06T00:47:46;99588.14;;;17.99;82.44
25944;BME280;13742;49.306;8.636;2023-08-06T00:48:46;99590.48;;;17.98;82.14
25944;BME280;13742;49.306;8.636;2023-08-06T00:49:46;99591.38;;;17.98;82.51
25944;BME280;13742;49.306;8.636;2023-08-06T00:50:46;99586.94;;;17.97;83.57
25944;BME280;13742;49.306;8.636;2023-08-06T00:51:46;99585.87;;;17.98;82.82
25944;BME280;13742;49.306;8.636;2023-08-06T00:52:46;99584.89;;;17.97;82.62
25944;BME280;13742;49.306;8.636;2023-08-06T00:53:46;99586.73;;;17.96;82.51
25944;BME280;13742;49.306;8.636;2023-08-06T00:54:46;99595.08;;;17.96;82.41
25944;BME280;13742;49.306;8.636;2023-08-06T00:55:46;99596.88;;;17.95;82.64
25944;BME280;13742;49.306;8.636;2023-08-06T00:56:46;99595.35;;;17.97;82.63
25944;BME280;13742;49.306;8.636;2023-08-06T00:57:46;99595.55;;;17.95;82.26
25944;BME280;13742;49.306;8.636;2023-08-06T00:58:46;99590.77;;;17.95;82.09
25944;BME280;13742;49.306;8.636;2023-08-06T00:59:46;99593.17;;;17.95;82.56
25944;BME280;13742;49.306;8.636;2023-08-06T01:00:46;99592.84;;;17.94;82.28
25944;BME280;13742;49.306;8.636;2023-08-06T01:01:46;99588.33;;;17.94;82.26
25944;BME280;13742;49.306;8.636;2023-08-06T01:02:46;99585.26;;;17.95;82.25
25944;BME280;13742;49.306;8.636;2023-08-06T01:03:46;99585.76;;;17.95;82.37
25944;BME280;13742;49.306;8.636;2023-08-06T01:04:46;99581.95;;;17.94;82.44
25944;BME280;13742;49.306;8.636;2023-08-06T01:05:46;99582.98;;;17.95;82.05
25944;BME280;13742;49.306;8.636;2023-08-06T01:06:52;99580.51;;;17.93;82.10
25944;BME280;13742;49.306;8.636;2023-08-06T01:08:53;99578.84;;;17.93;82.23
25944;BME280;13742;49.306;8.636;2023-08-06T01:09:50;99576.16;;;17.93;83.43
25944;BME280;13742;49.306;8.636;2023-08-06T01:13:47;99569.69;;;17.94;82.57
25944;BME280;13742;49.306;8.636;2023-08-06T01:15:46;99564.94;;;17.94;82.62
25944;BME280;13742;49.306;8.636;2023-08-06T01:16:46;99567.68;;;17.94;82.59
25944;BME280;13742;49.306;8.636;2023-08-06T01:17:46;99563.44;;;17.94;82.32
25944;BME280;13742;49.306;8.636;2023-08-06T01:18:47;99562.38;;;17.95;82.24
25944;BME280;13742;49.306;8.636;2023-08-06T01:19:46;99559.03;;;17.95;82.52
25944;BME280;13742;49.306;8.636;2023-08-06T01:20:46;99558.39;;;17.94;82.01
25944;BME280;13742;49.306;8.636;2023-08-06T01:21:46;99555.66;;;17.94;82.10
25944;BME280;13742;49.306;8.636;2023-08-06T01:22:46;99550.17;;;17.93;81.98
25944;BME280;13742;49.306;8.636;2023-08-06T01:23:46;99548.67;;;17.92;81.82
25944;BME280;13742;49.306;8.636;2023-08-06T01:24:46;99552.34;;;17.93;81.98
25944;BME280;13742;49.306;8.636;2023-08-06T01:25:49;99549.20;;;17.93;81.77
25944;BME280;13742;49.306;8.636;2023-08-06T01:26:48;99550.98;;;17.94;81.72
25944;BME280;13742;49.306;8.636;2023-08-06T01:27:49;99545.13;;;17.94;81.83
25944;BME280;13742;49.306;8.636;2023-08-06T01:28:52;99547.84;;;17.95;82.14
25944;BME280;13742;49.306;8.636;2023-08-06T01:29:59;99543.39;;;17.94;81.89
25944;BME280;13742;49.306;8.636;2023-08-06T01:30:46;99546.54;;;17.96;82.09
25944;BME280;13742;49.306;8.636;2023-08-06T01:31:47;99543.56;;;17.95;81.83
25944;BME280;13742;49.306;8.636;2023-08-06T01:32:47;99543.77;;;17.96;82.34
25944;BME280;13742;49.306;8.636;2023-08-06T01:33:47;99539.76;;;17.95;82.14
25944;BME280;13742;49.306;8.636;2023-08-06T01:34:46;99538.66;;;17.95;82.04
25944;BME280;13742;49.306;8.636;2023-08-06T01:35:46;99538.79;;;17.96;82.63
25944;BME280;13742;49.306;8.636;2023-08-06T01:36:46;99536.38;;;17.95;82.21
25944;BME280;13742;49.306;8.636;2023-08-06T01:37:46;99537.88;;;17.94;82.06
25944;BME280;13742;49.306;8.636;2023-08-06T01:38:46;99538.58;;;17.93;82.03
25944;BME280;13742;49.306;8.636;2023-08-06T01:39:47;99536.58;;;17.93;82.25
25944;BME280;13742;49.306;8.636;2023-08-06T01:40:46;99536.17;;;17.94;82.25
25944;BME280;13742;49.306;8.636;2023-08-06T01:41:46;99535.58;;;17.93;82.10
25944;BME280;13742;49.306;8.636;2023-08-06T01:42:46;99536.20;;;17.92;82.07
25944;BME280;13742;49.306;8.636;2023-08-06T01:43:46;99534.73;;;17.90;81.81
25944;BME280;13742;49.306;8.636;2023-08-06T01:44:46;99534.53;;;17.89;81.55
25944;BME280;13742;49.306;8.636;2023-08-06T01:45:46;99530.16;;;17.88;81.60
25944;BME280;13742;49.306;8.636;2023-08-06T01:46:46;99533.39;;;17.88;81.61
25944;BME280;13742;49.306;8.636;2023-08-06T01:47:46;99528.20;;;17.85;81.53
25944;BME280;13742;49.306;8.636;2023-08-06T01:48:46;99527.27;;;17.85;81.55
25944;BME280;13742;49.306;8.636;2023-08-06T01:49:46;99520.16;;;17.84;81.82
25944;BME280;13742;49.306;8.636;2023-08-06T01:50:46;99525.26;;;17.82;81.60
25944;BME280;13742;49.306;8.636;2023-08-06T01:51:46;99520.78;;;17.80;81.46
25944;BME280;13742;49.306;8.636;2023-08-06T01:52:46;99531.13;;;17.80;81.46
25944;BME280;13742;49.306;8.636;2023-08-06T01:53:46;99527.19;;;17.80;81.47
25944;BME280;13742;49.306;8.636;2023-08-06T01:54:46;99524.41;;;17.79;81.72
25944;BME280;13742;49.306;8.636;2023-08-06T01:55:49;99528.19;;;17.78;82.03
25944;BME280;13742;49.306;8.636;2023-08-06T01:56:46;99525.20;;;17.76;81.79
25944;BME280;13742;49.306;8.636;2023-08-06T01:57:46;99526.91;;;17.75;82.00
25944;BME280;13742;49.306;8.636;2023-08-06T01:58:46;99525.53;;;17.74;81.92
25944;BME280;13742;49.306;8.636;2023-08-06T01:59:46;99527.20;;;17.73;82.03
25944;BME280;13742;49.306;8.636;2023-08-06T02:00:46;99531.37;;;17.71;82.03
25944;BME280;13742;49.306;8.636;2023-08-06T02:01:46;99530.36;;;17.70;81.75
25944;BME280;13742;49.306;8.636;2023-08-06T02:02:46;99528.06;;;17.69;81.80
25944;BME280;13742;49.306;8.636;2023-08-06T02:03:46;99526.02;;;17.69;82.76
25944;BME280;13742;49.306;8.636;2023-08-06T02:04:46;99523.62;;;17.69;82.84
25944;BME280;13742;49.306;8.636;2023-08-06T02:05:46;99522.11;;;17.68;82.69
25944;BME280;13742;49.306;8.636;2023-08-06T02:06:46;99523.06;;;17.65;82.40
25944;BME280;13742;49.306;8.636;2023-08-06T02:07:46;99521.94;;;17.66;82.50
25944;BME280;13742;49.306;8.636;2023-08-06T02:08:46;99524.67;;;17.66;82.74
25944;BME280;13742;49.306;8.636;2023-08-06T02:09:46;99517.13;;;17.64;83.15
25944;BME280;13742;49.306;8.636;2023-08-06T02:10:46;99520.23;;;17.65;82.84
25944;BME280;13742;49.306;8.636;2023-08-06T02:11:46;99515.62;;;17.64;82.62
25944;BME280;13742;49.306;8.636;2023-08-06T02:12:46;99508.70;;;17.65;83.08
25944;BME280;13742;49.306;8.636;2023-08-06T02:13:46;99509.38;;;17.65;82.73
25944;BME280;13742;49.306;8.636;2023-08-06T02:14:46;99505.38;;;17.65;83.01
25944;BME280;13742;49.306;8.636;2023-08-06T02:15:49;99507.31;;;17.65;82.66
25944;BME280;13742;49.306;8.636;2023-08-06T02:16:46;99508.38;;;17.65;82.51
25944;BME280;13742;49.306;8.636;2023-08-06T02:17:46;99510.55;;;17.65;82.50
25944;BME280;13742;49.306;8.636;2023-08-06T02:18:46;99512.28;;;17.64;82.20
25944;BME280;13742;49.306;8.636;2023-08-06T02:19:46;99517.92;;;17.63;82.23
25944;BME280;13742;49.306;8.636;2023-08-06T02:21:46;99516.55;;;17.65;82.85
25944;BME280;13742;49.306;8.636;2023-08-06T02:22:46;99515.62;;;17.64;82.29
25944;BME280;13742;49.306;8.636;2023-08-06T02:23:46;99517.45;;;17.65;82.44
25944;BME280;13742;49.306;8.636;2023-08-06T02:24:46;99519.77;;;17.66;82.20
25944;BME280;13742;49.306;8.636;2023-08-06T02:25:46;99516.86;;;17.66;82.37
25944;BME280;13742;49.306;8.636;2023-08-06T02:26:47;99509.21;;;17.65;82.37
25944;BME280;13742;49.306;8.636;2023-08-06T02:27:46;99509.50;;;17.64;81.82
25944;BME280;13742;49.306;8.636;2023-08-06T02:28:46;99504.40;;;17.64;82.14
25944;BME280;13742;49.306;8.636;2023-08-06T02:29:46;99505.33;;;17.64;82.19
25944;BME280;13742;49.306;8.636;2023-08-06T02:30:49;99508.41;;;17.66;82.53
25944;BME280;13742;49.306;8.636;2023-08-06T02:31:46;99507.94;;;17.65;82.26
25944;BME280;13742;49.306;8.636;2023-08-06T02:32:46;99508.41;;;17.64;82.36
25944;BME280;13742;49.306;8.636;2023-08-06T02:33:46;99508.23;;;17.64;82.27
25944;BME280;13742;49.306;8.636;2023-08-06T02:34:46;99516.86;;;17.64;82.30
25944;BME280;13742;49.306;8.636;2023-08-06T02:35:46;99511.50;;;17.61;82.34
25944;BME280;13742;49.306;8.636;2023-08-06T02:36:46;99514.30;;;17.61;82.37
25944;BME280;13742;49.306;8.636;2023-08-06T02:37:46;99516.51;;;17.61;82.62
25944;BME280;13742;49.306;8.636;2023-08-06T02:38:46;99516.78;;;17.62;82.03
25944;BME280;13742;49.306;8.636;2023-08-06T02:39:46;99511.84;;;17.61;82.24
25944;BME280;13742;49.306;8.636;2023-08-06T02:40:46;99512.06;;;17.61;81.78
25944;BME280;13742;49.306;8.636;2023-08-06T02:41:46;99512.80;;;17.60;81.71
25944;BME280;13742;49.306;8.636;2023-08-06T02:42:46;99511.03;;;17.60;81.98
25944;BME280;13742;49.306;8.636;2023-08-06T02:43:46;99512.80;;;17.60;82.25
25944;BME280;13742;49.306;8.636;2023-08-06T02:44:46;99512.93;;;17.59;81.94
25944;BME280;13742;49.306;8.636;2023-08-06T02:45:46;99507.89;;;17.58;82.17
25944;BME280;13742;49.306;8.636;2023-08-06T02:46:46;99507.82;;;17.59;82.45
25944;BME280;13742;49.306;8.636;2023-08-06T02:47:46;99515.00;;;17.59;82.32
25944;BME280;13742;49.306;8.636;2023-08-06T02:48:46;99506.52;;;17.57;81.96
25944;BME280;13742;49.306;8.636;2023-08-06T02:49:46;99513.09;;;17.57;81.90
25944;BME280;13742;49.306;8.636;2023-08-06T02:50:46;99510.55;;;17.56;82.03
25944;BME280;13742;49.306;8.636;2023-08-06T02:51:46;99508.81;;;17.56;82.12
25944;BME280;13742;49.306;8.636;2023-08-06T02:52:46;99519.39;;;17.56;82.31
25944;BME280;13742;49.306;8.636;2023-08-06T02:53:47;99517.69;;;17.55;81.92
25944;BME280;13742;49.306;8.636;2023-08-06T02:54:46;99514.25;;;17.54;82.06
25944;BME280;13742;49.306;8.636;2023-08-06T02:55:46;99515.41;;;17.54;82.43
25944;BME280;13742;49.306;8.636;2023-08-06T02:56:46;99518.45;;;17.55;82.44
25944;BME280;13742;49.306;8.636;2023-08-06T02:57:46;99515.78;;;17.55;82.29
25944;BME280;13742;49.306;8.636;2023-08-06T02:58:46;99515.81;;;17.54;82.33
25944;BME280;13742;49.306;8.636;2023-08-06T02:59:46;99515.13;;;17.49;82.72
25944;BME280;13742;49.306;8.636;2023-08-06T03:00:46;99515.16;;;17.49;82.48
25944;BME280;13742;49.306;8.636;2023-08-06T03:01:46;99515.50;;;17.49;82.79
25944;BME280;13742;49.306;8.636;2023-08-06T03:02:46;99514.92;;;17.48;82.18
25944;BME280;13742;49.306;8.636;2023-08-06T03:03:46;99517.91;;;17.45;82.35
25944;BME280;13742;49.306;8.636;2023-08-06T03:04:46;99512.81;;;17.45;82.30
25944;BME280;13742;49.306;8.636;2023-08-06T03:06:46;99509.58;;;17.45;82.51
25944;BME280;13742;49.306;8.636;2023-08-06T03:07:46;99508.05;;;17.46;82.42
25944;BME280;13742;49.306;8.636;2023-08-06T03:08:46;99508.50;;;17.45;81.87
25944;BME280;13742;49.306;8.636;2023-08-06T03:09:46;99506.67;;;17.45;82.32
25944;BME280;13742;49.306;8.636;2023-08-06T03:10:46;99505.00;;;17.45;82.31
25944;BME280;13742;49.306;8.636;2023-08-06T03:11:46;99500.56;;;17.45;82.84
25944;BME280;13742;49.306;8.636;2023-08-06T03:12:46;99499.39;;;17.45;82.46
25944;BME280;13742;49.306;8.636;2023-08-06T03:13:46;99497.45;;;17.45;82.38
25944;BME280;13742;49.306;8.636;2023-08-06T03:14:46;99499.86;;;17.46;82.58
25944;BME280;13742;49.306;8.636;2023-08-06T03:16:46;99495.92;;;17.46;82.55
25944;BME280;13742;49.306;8.636;2023-08-06T03:17:46;99497.46;;;17.47;82.21
25944;BME280;13742;49.306;8.636;2023-08-06T03:18:46;99496.30;;;17.47;81.97
25944;BME280;13742;49.306;8.636;2023-08-06T03:19:46;99494.23;;;17.48;82.50
25944;BME280;13742;49.306;8.636;2023-08-06T03:20:46;99496.23;;;17.48;82.69
25944;BME280;13742;49.306;8.636;2023-08-06T03:21:46;99494.73;;;17.47;82.33
25944;BME280;13742;49.306;8.636;2023-08-06T03:22:46;99494.02;;;17.46;82.12
25944;BME280;13742;49.306;8.636;2023-08-06T03:23:48;99495.39;;;17.47;82.29
25944;BME280;13742;49.306;8.636;2023-08-06T03:24:46;99495.66;;;17.48;82.16
25944;BME280;13742;49.306;8.636;2023-08-06T03:25:46;99498.00;;;17.48;82.07
25944;BME280;13742;49.306;8.636;2023-08-06T03:26:46;99494.59;;;17.49;82.39
25944;BME280;13742;49.306;8.636;2023-08-06T03:27:46;99493.73;;;17.50;82.90
25944;BME280;13742;49.306;8.636;2023-08-06T03:28:46;99494.13;;;17.47;82.46
25944;BME280;13742;49.306;8.636;2023-08-06T03:29:48;99496.80;;;17.47;82.47
25944;BME280;13742;49.306;8.636;2023-08-06T03:30:46;99490.25;;;17.48;82.64
25944;BME280;13742;49.306;8.636;2023-08-06T03:31:46;99488.78;;;17.47;82.58
25944;BME280;13742;49.306;8.636;2023-08-06T03:32:47;99486.78;;;17.47;82.69
25944;BME280;13742;49.306;8.636;2023-08-06T03:33:46;99489.67;;;17.44;82.55
25944;BME280;13742;49.306;8.636;2023-08-06T03:34:46;99492.39;;;17.38;81.42
25944;BME280;13742;49.306;8.636;2023-08-06T03:35:46;99486.84;;;17.38;81.77
25944;BME280;13742;49.306;8.636;2023-08-06T03:36:46;99487.81;;;17.39;82.16
25944;BME280;13742;49.306;8.636;2023-08-06T03:37:46;99488.19;;;17.40;82.16
25944;BME280;13742;49.306;8.636;2023-08-06T03:38:46;99486.02;;;17.40;82.27
25944;BME280;13742;49.306;8.636;2023-08-06T03:39:46;99489.96;;;17.41;82.46
25944;BME280;13742;49.306;8.636;2023-08-06T03:40:46;99493.47;;;17.41;82.42
25944;BME280;13742;49.306;8.636;2023-08-06T03:41:46;99491.92;;;17.40;82.09
25944;BME280;13742;49.306;8.636;2023-08-06T03:42:46;99491.02;;;17.38;81.74
25944;BME280;13742;49.306;8.636;2023-08-06T03:43:46;99492.58;;;17.37;81.30
25944;BME280;13742;49.306;8.636;2023-08-06T03:44:47;99493.05;;;17.36;81.32
25944;BME280;13742;49.306;8.636;2023-08-06T03:45:46;99492.77;;;17.35;81.54
25944;BME280;13742;49.306;8.636;2023-08-06T03:46:46;99494.17;;;17.35;81.73
25944;BME280;13742;49.306;8.636;2023-08-06T03:47:46;99493.55;;;17.28;81.40
25944;BME280;13742;49.306;8.636;2023-08-06T03:48:46;99497.05;;;17.28;81.42
25944;BME280;13742;49.306;8.636;2023-08-06T03:49:46;99491.13;;;17.25;81.56
25944;BME280;13742;49.306;8.636;2023-08-06T03:50:46;99491.80;;;17.26;81.72
25944;BME280;13742;49.306;8.636;2023-08-06T03:51:46;99490.86;;;17.25;81.64
25944;BME280;13742;49.306;8.636;2023-08-06T03:52:46;99493.97;;;17.25;81.60
25944;BME280;13742;49.306;8.636;2023-08-06T03:53:46;99492.84;;;17.26;81.98
25944;BME280;13742;49.306;8.636;2023-08-06T03:54:46;99492.98;;;17.22;81.36
25944;BME280;13742;49.306;8.636;2023-08-06T03:55:46;99492.64;;;17.21;81.71
25944;BME280;13742;49.306;8.636;2023-08-06T03:56:46;99492.42;;;17.22;81.38
25944;BME280;13742;49.306;8.636;2023-08-06T03:57:46;99493.79;;;17.17;81.07
25944;BME280;13742;49.306;8.636;2023-08-06T03:58:46;99493.09;;;17.17;81.26
25944;BME280;13742;49.306;8.636;2023-08-06T03:59:46;99490.69;;;17.15;81.28
25944;BME280;13742;49.306;8.636;2023-08-06T04:00:46;99492.35;;;17.15;81.42
25944;BME280;13742;49.306;8.636;2023-08-06T04:01:46;99494.86;;;17.16;81.37
25944;BME280;13742;49.306;8.636;2023-08-06T04:02:46;99493.41;;;17.15;81.16
25944;BME280;13742;49.306;8.636;2023-08-06T04:03:46;99494.35;;;17.15;81.36
25944;BME280;13742;49.306;8.636;2023-08-06T04:04:46;99493.81;;;17.15;81.20
25944;BME280;13742;49.306;8.636;2023-08-06T04:05:46;99490.79;;;17.16;81.43
25944;BME280;13742;49.306;8.636;2023-08-06T04:06:46;99491.42;;;17.16;81.44
25944;BME280;13742;49.306;8.636;2023-08-06T04:07:46;99495.92;;;17.15;81.34
25944;BME280;13742;49.306;8.636;2023-08-06T04:08:46;99501.67;;;17.10;81.79
25944;BME280;13742;49.306;8.636;2023-08-06T04:10:49;99494.38;;;17.08;81.29
25944;BME280;13742;49.306;8.636;2023-08-06T04:11:46;99495.35;;;17.09;81.29
25944;BME280;13742;49.306;8.636;2023-08-06T04:12:46;99496.95;;;17.07;81.13
25944;BME280;13742;49.306;8.636;2023-08-06T04:13:46;99499.20;;;16.98;81.21
25944;BME280;13742;49.306;8.636;2023-08-06T04:14:46;99498.68;;;16.95;81.65
25944;BME280;13742;49.306;8.636;2023-08-06T04:15:46;99498.77;;;16.93;81.70
25944;BME280;13742;49.306;8.636;2023-08-06T04:16:46;99498.04;;;16.94;81.54
25944;BME280;13742;49.306;8.636;2023-08-06T04:17:46;99496.75;;;16.95;81.54
25944;BME280;13742;49.306;8.636;2023-08-06T04:18:46;99499.63;;;16.92;81.50
25944;BME280;13742;49.306;8.636;2023-08-06T04:20:46;99491.70;;;16.77;82.20
25944;BME280;13742;49.306;8.636;2023-08-06T04:21:46;99489.61;;;16.79;82.07
25944;BME280;13742;49.306;8.636;2023-08-06T04:22:46;99491.90;;;16.78;82.08
25944;BME280;13742;49.306;8.636;2023-08-06T04:23:46;99488.00;;;16.78;82.18
25944;BME280;13742;49.306;8.636;2023-08-06T04:24:46;99488.20;;;16.73;82.36
25944;BME280;13742;49.306;8.636;2023-08-06T04:25:46;99492.24;;;16.74;82.63
25944;BME280;13742;49.306;8.636;2023-08-06T04:26:46;99496.38;;;16.75;82.78
25944;BME280;13742;49.306;8.636;2023-08-06T04:27:46;99493.26;;;16.76;82.47
25944;BME280;13742;49.306;8.636;2023-08-06T04:28:46;99491.86;;;16.77;82.69
25944;BME280;13742;49.306;8.636;2023-08-06T04:29:46;99498.27;;;16.76;82.58
25944;BME280;13742;49.306;8.636;2023-08-06T04:30:46;99495.98;;;16.73;82.70
25944;BME280;13742;49.306;8.636;2023-08-06T04:31:46;99491.68;;;16.74;82.95
25944;BME280;13742;49.306;8.636;2023-08-06T04:32:46;99496.52;;;16.74;82.99
25944;BME280;13742;49.306;8.636;2023-08-06T04:33:46;99498.25;;;16.74;82.55
25944;BME280;13742;49.306;8.636;2023-08-06T04:34:46;99497.38;;;16.73;82.63
25944;BME280;13742;49.306;8.636;2023-08-06T04:35:46;99497.88;;;16.73;82.46
25944;BME280;13742;49.306;8.636;2023-08-06T04:36:46;99498.34;;;16.74;82.65
25944;BME280;13742;49.306;8.636;2023-08-06T04:37:46;99503.41;;;16.74;82.90
25944;BME280;13742;49.306;8.636;2023-08-06T04:38:47;99502.52;;;16.70;82.68
25944;BME280;13742;49.306;8.636;2023-08-06T04:39:46;99498.91;;;16.69;82.61
25944;BME280;13742;49.306;8.636;2023-08-06T04:40:46;99496.83;;;16.71;82.92
25944;BME280;13742;49.306;8.636;2023-08-06T04:41:46;99499.38;;;16.73;82.60
25944;BME280;13742;49.306;8.636;2023-08-06T04:42:46;99498.48;;;16.73;82.76
25944;BME280;13742;49.306;8.636;2023-08-06T04:43:46;99498.70;;;16.73;82.64
25944;BME280;13742;49.306;8.636;2023-08-06T04:44:46;99503.54;;;16.73;82.52
25944;BME280;13742;49.306;8.636;2023-08-06T04:45:49;99501.13;;;16.70;82.65
25944;BME280;13742;49.306;8.636;2023-08-06T04:46:46;99504.05;;;16.65;82.65
25944;BME280;13742;49.306;8.636;2023-08-06T04:47:46;99508.14;;;16.63;82.57
25944;BME280;13742;49.306;8.636;2023-08-06T04:48:46;99504.64;;;16.63;82.29
25944;BME280;13742;49.306;8.636;2023-08-06T04:49:46;99509.42;;;16.66;82.75
25944;BME280;13742;49.306;8.636;2023-08-06T04:50:46;99510.16;;;16.65;82.51
25944;BME280;13742;49.306;8.636;2023-08-06T04:51:46;99509.25;;;16.65;82.57
25944;BME280;13742;49.306;8.636;2023-08-06T04:52:46;99506.48;;;16.65;82.77
25944;BME280;13742;49.306;8.636;2023-08-06T04:53:46;99517.00;;;16.67;82.43
25944;BME280;13742;49.306;8.636;2023-08-06T04:54:46;99509.53;;;16.61;82.75
25944;BME280;13742;49.306;8.636;2023-08-06T04:55:46;99507.91;;;16.63;82.67
25944;BME280;13742;49.306;8.636;2023-08-06T04:56:46;99506.21;;;16.64;82.83
25944;BME280;13742;49.306;8.636;2023-08-06T04:57:46;99506.97;;;16.63;82.33
25944;BME280;13742;49.306;8.636;2023-08-06T04:58:46;99506.76;;;16.57;82.71
25944;BME280;13742;49.306;8.636;2023-08-06T04:59:46;99501.78;;;16.59;82.69
25944;BME280;13742;49.306;8.636;2023-08-06T05:00:46;99503.72;;;16.61;82.96
25944;BME280;13742;49.306;8.636;2023-08-06T05:01:46;99504.77;;;16.57;82.50
25944;BME280;13742;49.306;8.636;2023-08-06T05:02:46;99501.83;;;16.57;82.65
25944;BME280;13742;49.306;8.636;2023-08-06T05:03:46;99499.01;;;16.55;82.84
25944;BME280;13742;49.306;8.636;2023-08-06T05:04:46;99498.87;;;16.58;83.14
25944;BME280;13742;49.306;8.636;2023-08-06T05:05:46;99497.36;;;16.57;82.99
25944;BME280;13742;49.306;8.636;2023-08-06T05:06:46;99499.34;;;16.55;82.68
25944;BME280;13742;49.306;8.636;2023-08-06T05:07:49;99499.37;;;16.58;82.72
25944;BME280;13742;49.306;8.636;2023-08-06T05:08:46;99495.98;;;16.56;82.71
25944;BME280;13742;49.306;8.636;2023-08-06T05:09:46;99500.76;;;16.57;82.63
25944;BME280;13742;49.306;8.636;2023-08-06T05:10:46;99500.16;;;16.56;82.95
25944;BME280;13742;49.306;8.636;2023-08-06T05:11:46;99504.44;;;16.59;83.02
25944;BME280;13742;49.306;8.636;2023-08-06T05:12:46;99504.89;;;16.52;82.66
25944;BME280;13742;49.306;8.636;2023-08-06T05:13:46;99501.02;;;16.47;82.77
25944;BME280;13742;49.306;8.636;2023-08-06T05:14:46;99500.08;;;16.46;83.11
25944;BME280;13742;49.306;8.636;2023-08-06T05:15:46;99500.69;;;16.47;83.28
25944;BME280;13742;49.306;8.636;2023-08-06T05:16:46;99506.52;;;16.47;83.75
25944;BME280;13742;49.306;8.636;2023-08-06T05:17:46;99501.23;;;16.40;83.99
25944;BME280;13742;49.306;8.636;2023-08-06T05:18:46;99503.43;;;16.41;84.20
25944;BME280;13742;49.306;8.636;2023-08-06T05:19:46;99502.39;;;16.39;84.66
25944;BME280;13742;49.306;8.636;2023-08-06T05:20:46;99504.22;;;16.40;84.62
25944;BME280;13742;49.306;8.636;2023-08-06T05:21:46;99504.20;;;16.41;84.54
25944;BME280;13742;49.306;8.636;2023-08-06T05:22:46;99501.31;;;16.42;85.03
25944;BME280;13742;49.306;8.636;2023-08-06T05:23:46;99503.27;;;16.45;84.83
25944;BME280;13742;49.306;8.636;2023-08-06T05:24:46;99505.16;;;16.44;85.31
25944;BME280;13742;49.306;8.636;2023-08-06T05:25:46;99502.09;;;16.45;85.18
25944;BME280;13742;49.306;8.636;2023-08-06T05:26:47;99503.84;;;16.47;85.98
25944;BME280;13742;49.306;8.636;2023-08-06T05:27:46;99499.99;;;16.48;85.43